Time;durP1;ratioP1;P1;durP2;ratioP2;P2;SDS_P1;SDS_P2;PMS_P1;PMS_P2;Temp;Humidity;BMP_temperature;BMP_pressure;BME280_temperature;BME280_humidity;BME280_pressure;Samples;Min_cycle;Max_cycle;Signal;HPM_P1;HPM_P2
2023/04/02 00:00:09;;;;;;;10.25;6.65;;;;;;;6.17;100.00;100972.94;4995238;28;20046;-89
2023/04/02 00:02:53;;;;;;;12.95;7.88;;;;;;;6.14;100.00;100976.69;4969396;28;20047;-89
2023/04/02 00:05:29;;;;;;;13.77;7.68;;;;;;;6.12;100.00;100977.72;4964356;28;20042;-89
2023/04/02 00:08:25;;;;;;;11.38;7.65;;;;;;;6.11;100.00;100982.25;4959411;28;20031;-90
2023/04/02 00:11:01;;;;;;;10.75;7.15;;;;;;;6.07;100.00;100985.19;4969297;28;20396;-88
2023/04/02 00:13:40;;;;;;;16.00;8.18;;;;;;;6.07;100.00;100991.47;4955033;28;20144;-90
2023/04/02 00:16:10;;;;;;;11.30;7.63;;;;;;;6.01;100.00;100988.19;4986258;28;20134;-89
2023/04/02 00:18:41;;;;;;;12.63;8.52;;;;;;;6.01;100.00;100999.84;4969619;28;20177;-90
2023/04/02 00:21:12;;;;;;;13.20;8.25;;;;;;;6.00;100.00;101002.66;4980163;28;20401;-90
2023/04/02 00:23:40;;;;;;;13.70;8.65;;;;;;;6.00;100.00;101013.44;5008917;28;20046;-90
2023/04/02 00:26:24;;;;;;;11.65;8.13;;;;;;;5.97;100.00;101009.09;4991870;28;20516;-91
2023/04/02 00:28:50;;;;;;;17.95;9.15;;;;;;;5.89;100.00;101008.56;4989021;28;20030;-88
2023/04/02 00:31:18;;;;;;;11.88;7.10;;;;;;;5.92;100.00;101010.25;4972322;28;20393;-90
2023/04/02 00:33:45;;;;;;;12.65;7.93;;;;;;;5.85;100.00;101013.25;5005527;28;20057;-91
2023/04/02 00:36:11;;;;;;;13.82;8.38;;;;;;;5.87;100.00;101022.16;5008287;28;20025;-90
2023/04/02 00:38:37;;;;;;;13.85;8.30;;;;;;;5.85;100.00;101028.56;5007400;28;20390;-92
2023/04/02 00:41:05;;;;;;;12.60;8.40;;;;;;;5.84;100.00;101035.78;5008580;28;20037;-90
2023/04/02 00:43:35;;;;;;;13.00;8.43;;;;;;;5.85;100.00;101047.47;5008404;28;20045;-91
2023/04/02 00:46:14;;;;;;;12.73;8.10;;;;;;;5.84;100.00;101041.19;4981079;28;20054;-90
2023/04/02 00:48:51;;;;;;;13.20;8.73;;;;;;;5.83;100.00;101050.25;4973176;28;20485;-91
2023/04/02 00:51:29;;;;;;;11.70;7.57;;;;;;;5.82;100.00;101059.28;4969811;28;20138;-89
2023/04/02 00:53:59;;;;;;;15.55;9.43;;;;;;;5.76;100.00;101054.19;4954150;28;20042;-89
2023/04/02 00:56:45;;;;;;;14.23;8.68;;;;;;;5.79;100.00;101059.44;4985996;28;20486;-91
2023/04/02 00:59:26;;;;;;;12.32;8.43;;;;;;;5.80;100.00;101057.63;4990703;28;20367;-90
2023/04/02 01:02:00;;;;;;;12.15;8.63;;;;;;;5.77;100.00;101061.34;4993017;28;20533;-90
2023/04/02 01:04:33;;;;;;;13.52;8.73;;;;;;;5.78;100.00;101076.59;4980438;28;20033;-90
2023/04/02 01:07:03;;;;;;;12.70;9.07;;;;;;;5.75;100.00;101071.34;4999274;28;20502;-90
2023/04/02 01:09:47;;;;;;;14.75;8.90;;;;;;;5.76;100.00;101077.63;4977710;28;20027;-90
2023/04/02 01:12:31;;;;;;;14.23;8.93;;;;;;;5.72;100.00;101087.69;4995953;28;20486;-88
2023/04/02 01:15:17;;;;;;;12.77;8.98;;;;;;;5.70;100.00;101086.03;4987947;28;20611;-91
2023/04/02 01:18:01;;;;;;;14.95;7.82;;;;;;;5.64;100.00;101081.78;4957840;28;20122;-89
2023/04/02 01:20:52;;;;;;;11.40;7.72;;;;;;;5.70;100.00;101086.03;4989929;28;20114;-90
2023/04/02 01:23:33;;;;;;;15.65;9.05;;;;;;;5.68;100.00;101093.31;4977908;28;20034;-89
2023/04/02 01:26:27;;;;;;;13.80;8.77;;;;;;;5.67;100.00;101096.97;4993844;28;20038;-89
2023/04/02 01:29:09;;;;;;;13.70;8.77;;;;;;;5.71;100.00;101115.63;4993701;28;20042;-89
2023/04/02 01:31:36;;;;;;;10.60;7.60;;;;;;;5.70;100.00;101111.19;4993773;28;20082;-90
2023/04/02 01:34:04;;;;;;;16.52;10.68;;;;;;;5.62;100.00;101111.53;4979520;28;20029;-90
2023/04/02 01:36:53;;;;;;;15.13;9.07;;;;;;;5.63;100.00;101120.50;4991289;28;20049;-89
2023/04/02 01:39:34;;;;;;;16.20;10.63;;;;;;;5.58;100.00;101120.72;4958966;28;20471;-89
2023/04/02 01:42:08;;;;;;;16.95;10.50;;;;;;;5.55;100.00;101130.81;4974783;28;20049;-89
2023/04/02 01:44:40;;;;;;;16.30;9.38;;;;;;;5.49;100.00;101129.25;4977957;28;20032;-90
2023/04/02 01:47:10;;;;;;;18.40;10.23;;;;;;;5.45;100.00;101135.75;5000994;28;20030;-91
2023/04/02 01:49:39;;;;;;;15.75;9.50;;;;;;;5.47;100.00;101149.19;4976853;28;20080;-89
2023/04/02 01:52:05;;;;;;;14.05;9.23;;;;;;;5.45;100.00;101151.94;4977427;28;20042;-89
2023/04/02 01:54:32;;;;;;;16.05;10.18;;;;;;;5.41;100.00;101146.75;4993276;28;20034;-88
2023/04/02 01:56:58;;;;;;;12.15;8.10;;;;;;;5.43;100.00;101152.97;4976184;28;20085;-88
2023/04/02 01:59:25;;;;;;;13.02;8.88;;;;;;;5.43;100.00;101163.75;4991848;28;20029;-89
2023/04/02 02:02:04;;;;;;;10.40;7.55;;;;;;;5.43;100.00;101164.63;4977369;28;20034;-90
2023/04/02 02:04:33;;;;;;;6.28;5.15;;;;;;;5.44;100.00;101170.91;4990050;28;20447;-89
2023/04/02 02:07:00;;;;;;;11.23;7.47;;;;;;;5.40;100.00;101169.28;4993156;28;20045;-90
2023/04/02 02:09:31;;;;;;;11.25;6.80;;;;;;;5.37;100.00;101164.91;4979103;28;20132;-91
2023/04/02 02:11:57;;;;;;;11.45;6.57;;;;;;;5.41;100.00;101179.13;4956810;28;20507;-91
2023/04/02 02:14:25;;;;;;;9.45;6.53;;;;;;;5.34;100.00;101184.81;4985261;28;20366;-89
2023/04/02 02:16:55;;;;;;;9.85;6.38;;;;;;;5.40;100.00;101191.75;4992695;28;20448;-90
2023/04/02 02:19:24;;;;;;;7.57;4.80;;;;;;;5.38;100.00;101189.13;4989281;28;20482;-90
2023/04/02 02:21:52;;;;;;;9.10;5.90;;;;;;;5.32;100.00;101189.41;4974981;28;20128;-87
2023/04/02 02:24:23;;;;;;;5.65;4.07;;;;;;;5.37;100.00;101205.38;4991713;28;20049;-89
2023/04/02 02:27:00;;;;;;;8.60;5.97;;;;;;;5.26;100.00;101203.16;4975040;28;20137;-89
2023/04/02 02:29:29;;;;;;;7.85;5.38;;;;;;;5.23;100.00;101213.22;4992059;28;20025;-90
2023/04/02 02:31:56;;;;;;;8.35;5.63;;;;;;;5.26;100.00;101219.34;4994495;28;20406;-89
2023/04/02 02:34:30;;;;;;;6.55;4.50;;;;;;;5.20;100.00;101218.75;4978168;28;20376;-89
2023/04/02 02:37:06;;;;;;;5.70;4.50;;;;;;;5.19;100.00;101219.69;4994751;28;20034;-90
2023/04/02 02:39:42;;;;;;;6.28;4.68;;;;;;;5.19;100.00;101233.19;5010576;28;20177;-88
2023/04/02 02:42:27;;;;;;;9.55;5.57;;;;;;;5.19;100.00;101244.84;4992078;28;20084;-90
2023/04/02 02:44:55;;;;;;;6.47;4.53;;;;;;;5.18;100.00;101240.41;4999838;28;20045;-89
2023/04/02 02:47:25;;;;;;;9.27;5.55;;;;;;;5.25;100.00;101243.69;4987966;28;20105;-90
2023/04/02 02:49:55;;;;;;;6.80;5.15;;;;;;;5.12;100.00;101230.72;4976819;28;20084;-88
2023/04/02 02:52:26;;;;;;;7.30;4.95;;;;;;;5.20;100.00;101249.28;4971084;28;20046;-89
2023/04/02 02:55:05;;;;;;;8.40;5.57;;;;;;;5.15;100.00;101255.81;4973047;28;20035;-88
2023/04/02 02:57:54;;;;;;;11.25;6.00;;;;;;;5.19;100.00;101266.41;4987912;28;20035;-88
2023/04/02 03:00:24;;;;;;;12.20;8.10;;;;;;;5.13;100.00;101266.69;4967656;28;20038;-89
2023/04/02 03:02:53;;;;;;;11.93;7.72;;;;;;;5.12;100.00;101263.09;5008208;28;20034;-87
2023/04/02 03:05:22;;;;;;;12.30;7.32;;;;;;;5.16;100.00;101271.94;5008442;28;20490;-89
2023/04/02 03:07:54;;;;;;;13.35;8.20;;;;;;;5.09;100.00;101271.34;5010238;28;20030;-90
2023/04/02 03:10:34;;;;;;;16.80;8.07;;;;;;;5.17;100.00;101295.25;4974639;28;20066;-89
2023/04/02 03:13:20;;;;;;;12.35;8.00;;;;;;;5.09;100.00;101298.28;4954114;28;20199;-89
2023/04/02 03:16:11;;;;;;;9.90;6.70;;;;;;;5.05;100.00;101293.97;4995715;28;20079;-89
2023/04/02 03:19:15;;;;;;;10.88;7.18;;;;;;;5.04;100.00;101308.41;4954609;28;20123;-88
2023/04/02 03:21:49;;;;;;;12.00;7.53;;;;;;;4.99;100.00;101312.22;4986604;28;20035;-87
2023/04/02 03:24:31;;;;;;;10.38;7.35;;;;;;;4.98;100.00;101315.84;4981281;28;20035;-88
2023/04/02 03:27:15;;;;;;;13.30;7.97;;;;;;;4.94;100.00;101316.91;4972240;28;20128;-88
2023/04/02 03:29:49;;;;;;;10.30;7.55;;;;;;;4.89;100.00;101332.41;4994142;28;20470;-88
2023/04/02 03:32:25;;;;;;;;;;;;;;;4.98;100.00;101357.16;5005969;28;20084;-89
2023/04/02 03:34:57;;;;;;;14.70;8.00;;;;;;;4.87;100.00;101354.06;4992340;28;19917;-89
2023/04/02 03:37:31;;;;;;;13.32;7.82;;;;;;;4.79;100.00;101346.25;4993167;28;20033;-88
2023/04/02 03:40:06;;;;;;;13.07;7.00;;;;;;;4.79;100.00;101356.16;4992830;28;20049;-89
2023/04/02 03:42:45;;;;;;;15.60;8.75;;;;;;;4.79;100.00;101361.56;4981778;28;20034;-89
2023/04/02 03:45:20;;;;;;;12.75;6.95;;;;;;;4.73;100.00;101369.91;4969078;28;20034;-88
2023/04/02 03:47:45;;;;;;;10.25;7.28;;;;;;;4.72;100.00;101374.41;4987035;28;20030;-89
2023/04/02 03:50:24;;;;;;;12.20;5.90;;;;;;;4.73;100.00;101383.38;4988007;28;20031;-88
2023/04/02 03:52:56;;;;;;;10.63;6.07;;;;;;;4.61;100.00;101380.22;4973677;28;20045;-89
2023/04/02 03:55:27;;;;;;;9.75;7.00;;;;;;;4.67;100.00;101389.03;4988310;28;20030;-89
2023/04/02 03:58:15;;;;;;;9.90;5.75;;;;;;;4.65;100.00;101402.53;4988695;28;20565;-88
2023/04/02 04:00:59;;;;;;;11.63;7.32;;;;;;;4.57;100.00;101400.16;5000285;28;20030;-88
2023/04/02 04:03:37;;;;;;;13.85;7.50;;;;;;;4.58;100.00;101403.72;4980459;28;20054;-88
2023/04/02 04:06:19;;;;;;;15.45;8.40;;;;;;;4.54;100.00;101402.09;4989350;28;20041;-88
2023/04/02 04:08:53;;;;;;;14.15;8.05;;;;;;;4.53;100.00;101405.72;4972700;28;20089;-88
2023/04/02 04:11:28;;;;;;;11.73;7.22;;;;;;;4.54;100.00;101410.16;4973051;28;20085;-87
2023/04/02 04:14:18;;;;;;;9.95;7.25;;;;;;;4.58;100.00;101419.88;5001445;28;20034;-88
2023/04/02 04:16:52;;;;;;;14.13;8.55;;;;;;;4.57;100.00;101427.09;5007704;28;20137;-87
2023/04/02 04:19:32;;;;;;;13.68;8.05;;;;;;;4.55;100.00;101439.72;5004139;28;20092;-90
2023/04/02 04:22:18;;;;;;;14.35;8.63;;;;;;;4.59;100.00;101441.38;4972866;28;20050;-90
2023/04/02 04:24:47;;;;;;;15.13;8.00;;;;;;;4.52;100.00;101449.75;4972378;28;20121;-87
2023/04/02 04:27:32;;;;;;;11.73;7.25;;;;;;;4.57;100.00;101454.03;4973337;28;20381;-89
2023/04/02 04:30:26;;;;;;;12.27;7.35;;;;;;;4.61;100.00;101468.25;4971676;28;20144;-88
2023/04/02 04:32:57;;;;;;;;;;;;;;;4.56;100.00;101470.25;4953715;28;20039;-88
2023/04/02 04:35:30;;;;;;;11.02;5.68;;;;;;;4.50;100.00;101478.56;4994846;28;20293;-88
2023/04/02 04:38:10;;;;;;;8.00;5.55;;;;;;;4.47;100.00;101489.44;5008530;28;20038;-89
2023/04/02 04:40:49;;;;;;;10.52;6.80;;;;;;;4.39;100.00;101497.84;4974110;28;20034;-88
2023/04/02 04:43:21;;;;;;;9.60;5.15;;;;;;;4.37;100.00;101506.88;4973231;28;20104;-89
2023/04/02 04:45:55;;;;;;;9.02;5.07;;;;;;;4.35;100.00;101507.84;4990234;28;20025;-89
2023/04/02 04:48:45;;;;;;;10.90;6.10;;;;;;;4.34;100.00;101519.53;4973070;28;20037;-86
2023/04/02 04:51:28;;;;;;;10.82;7.30;;;;;;;4.29;100.00;101521.53;4993921;28;20048;-88
2023/04/02 04:53:54;;;;;;;;;;;;;;;4.32;100.00;101532.16;5012903;28;20061;-89
2023/04/02 04:56:26;;;;;;;8.65;5.30;;;;;;;4.22;99.96;101525.34;4994981;28;19914;-89
2023/04/02 04:59:06;;;;;;;14.25;6.18;;;;;;;4.17;100.00;101529.16;5005699;28;20490;-89
2023/04/02 05:01:51;;;;;;;9.60;6.30;;;;;;;4.16;100.00;101538.16;4985900;28;20046;-88
2023/04/02 05:04:34;;;;;;;9.18;6.05;;;;;;;4.13;100.00;101532.88;4991810;28;20038;-88
2023/04/02 05:07:15;;;;;;;8.77;6.38;;;;;;;4.10;100.00;101536.53;4998673;28;20523;-89
2023/04/02 05:10:11;;;;;;;10.75;6.30;;;;;;;4.06;100.00;101545.69;5012039;28;20048;-87
2023/04/02 05:12:44;;;;;;;10.43;5.55;;;;;;;4.08;100.00;101558.16;5010858;28;20395;-89
2023/04/02 05:15:37;;;;;;;11.35;6.57;;;;;;;4.07;99.85;101572.56;4997521;28;20443;-89
2023/04/02 05:18:30;;;;;;;9.35;5.82;;;;;;;4.07;100.00;101571.66;4956663;28;20425;-89
2023/04/02 05:21:03;;;;;;;9.70;5.20;;;;;;;4.04;99.40;101574.47;4970214;28;20373;-87
2023/04/02 05:23:35;;;;;;;11.32;6.38;;;;;;;4.02;100.00;101573.63;4988867;28;20391;-88
2023/04/02 05:26:24;;;;;;;11.52;6.88;;;;;;;4.03;100.00;101578.97;4974760;28;20064;-88
2023/04/02 05:29:01;;;;;;;8.40;6.15;;;;;;;3.99;99.39;101571.03;5009249;28;20402;-88
2023/04/02 05:31:44;;;;;;;9.80;5.85;;;;;;;4.05;99.18;101585.16;4984085;28;20501;-88
2023/04/02 05:34:10;;;;;;;;;;;;;;;4.04;99.77;101588.78;4992390;28;20065;-88
2023/04/02 05:36:36;;;;;;;8.43;5.43;;;;;;;3.98;99.15;101586.31;4977815;28;20355;-90
2023/04/02 05:39:08;;;;;;;9.23;6.10;;;;;;;3.98;99.65;101593.50;4986088;28;20552;-87
2023/04/02 05:41:46;;;;;;;10.88;5.97;;;;;;;3.99;100.00;101595.28;4995462;28;20037;-89
2023/04/02 05:44:28;;;;;;;10.88;5.57;;;;;;;3.97;100.00;101600.72;5000680;28;20061;-88
2023/04/02 05:47:03;;;;;;;9.25;6.28;;;;;;;4.00;99.75;101602.41;4977361;28;20034;-89
2023/04/02 05:49:46;;;;;;;11.38;5.93;;;;;;;4.05;99.75;101612.09;4988400;28;20031;-87
2023/04/02 05:52:18;;;;;;;12.68;7.28;;;;;;;4.02;100.00;101614.03;4986192;28;20046;-87
2023/04/02 05:54:50;;;;;;;12.00;6.20;;;;;;;4.01;100.00;101623.91;4974875;28;20096;-88
2023/04/02 05:57:24;;;;;;;13.75;7.10;;;;;;;4.03;99.92;101626.53;4991159;28;20034;-88
2023/04/02 05:59:56;;;;;;;15.23;8.15;;;;;;;4.02;100.00;101638.25;4998842;28;20044;-88
2023/04/02 06:02:25;;;;;;;19.13;8.23;;;;;;;4.06;100.00;101642.63;4972797;28;20069;-88
2023/04/02 06:05:04;;;;;;;16.15;9.48;;;;;;;4.03;100.00;101650.78;4972435;28;20466;-89
2023/04/02 06:07:43;;;;;;;14.77;9.00;;;;;;;4.03;100.00;101651.66;4999457;28;20030;-87
2023/04/02 06:10:16;;;;;;;16.60;8.02;;;;;;;4.04;100.00;101664.19;4990769;28;20030;-88
2023/04/02 06:12:41;;;;;;;14.15;9.18;;;;;;;4.02;100.00;101671.44;4990872;28;20046;-89
2023/04/02 06:15:15;;;;;;;12.80;8.05;;;;;;;4.00;100.00;101675.09;4974165;28;20040;-88
2023/04/02 06:18:12;;;;;;;14.85;8.95;;;;;;;4.00;99.55;101680.47;4993002;28;20049;-87
2023/04/02 06:20:39;;;;;;;11.48;7.70;;;;;;;3.91;98.81;101684.34;5007097;28;20072;-89
2023/04/02 06:23:13;;;;;;;9.55;6.20;;;;;;;3.94;97.58;101697.72;4994589;28;20453;-87
2023/04/02 06:25:44;;;;;;;13.48;7.38;;;;;;;3.93;97.30;101704.03;5011733;28;20088;-87
2023/04/02 06:28:34;;;;;;;15.02;7.05;;;;;;;3.89;96.86;101701.47;4993324;28;20490;-89
2023/04/02 06:31:05;;;;;;;12.45;7.43;;;;;;;3.81;95.77;101707.09;4969336;28;20105;-89
2023/04/02 06:33:34;;;;;;;8.90;6.30;;;;;;;3.79;96.22;101711.66;5009148;28;20484;-87
2023/04/02 06:36:01;;;;;;;11.52;7.25;;;;;;;3.80;96.17;101716.97;4993490;28;20033;-89
2023/04/02 06:38:31;;;;;;;13.70;6.53;;;;;;;3.76;95.91;101714.44;4983986;28;20034;-89
2023/04/02 06:41:16;;;;;;;12.57;6.18;;;;;;;3.78;96.51;101724.22;4990204;28;20069;-88
2023/04/02 06:44:05;;;;;;;9.70;5.30;;;;;;;3.78;94.92;101735.00;4988421;28;20038;-88
2023/04/02 06:46:57;;;;;;;11.57;6.22;;;;;;;3.78;94.40;101748.44;4972818;28;20040;-88
2023/04/02 06:49:38;;;;;;;9.02;5.85;;;;;;;3.75;94.73;101745.84;4975367;28;20026;-88
2023/04/02 06:52:12;;;;;;;;;;;;;;;3.79;95.42;101766.34;4992200;28;20058;-89
2023/04/02 06:54:38;;;;;;;9.77;4.97;;;;;;;3.72;94.15;101761.19;5008604;28;20246;-86
2023/04/02 06:57:08;;;;;;;13.38;5.47;;;;;;;3.71;95.26;101767.50;5006110;28;20022;-88
2023/04/02 06:59:37;;;;;;;10.77;6.47;;;;;;;3.75;96.78;101764.69;4991571;28;20560;-88
2023/04/02 07:02:25;;;;;;;10.40;5.47;;;;;;;3.80;94.28;101778.00;4994435;28;20034;-87
2023/04/02 07:04:51;;;;;;;9.82;4.07;;;;;;;3.86;94.65;101785.00;4987596;28;20470;-88
2023/04/02 07:07:18;;;;;;;10.88;4.78;;;;;;;3.82;95.23;101784.22;4973699;28;20438;-88
2023/04/02 07:09:45;;;;;;;11.02;4.97;;;;;;;3.86;93.53;101791.25;4989915;28;20030;-88
2023/04/02 07:12:14;;;;;;;6.78;4.30;;;;;;;3.84;93.64;101807.47;4993333;28;20449;-89
2023/04/02 07:14:41;;;;;;;9.13;4.97;;;;;;;3.80;94.08;101826.44;4972133;28;20514;-88
2023/04/02 07:17:15;;;;;;;9.30;4.55;;;;;;;3.76;93.29;101825.66;4982430;28;20039;-88
2023/04/02 07:19:43;;;;;;;8.52;4.35;;;;;;;3.72;92.98;101834.72;4983252;28;20058;-87
2023/04/02 07:22:08;;;;;;;4.95;3.55;;;;;;;3.71;92.95;101838.34;4964608;28;20394;-88
2023/04/02 07:24:38;;;;;;;4.95;3.55;;;;;;;3.70;92.09;101841.09;4973870;28;20510;-86
2023/04/02 07:27:03;;;;;;;5.97;3.67;;;;;;;3.65;92.73;101848.41;4973290;28;20041;-87
2023/04/02 07:29:29;;;;;;;5.78;3.25;;;;;;;3.68;92.35;101864.44;4979882;28;20026;-88
2023/04/02 07:31:54;;;;;;;6.65;3.60;;;;;;;3.57;92.64;101857.56;4990472;28;20405;-88
2023/04/02 07:34:19;;;;;;;5.28;3.92;;;;;;;3.60;92.98;101861.13;4975310;28;20042;-86
2023/04/02 07:36:45;;;;;;;6.82;4.22;;;;;;;3.64;93.18;101868.16;4988761;28;20100;-89
2023/04/02 07:39:11;;;;;;;8.40;4.95;;;;;;;3.58;90.80;101859.31;4987901;28;20038;-89
2023/04/02 07:41:57;;;;;;;9.00;4.07;;;;;;;3.63;91.92;101866.38;4988868;28;20161;-89
2023/04/02 07:44:23;;;;;;;5.47;2.88;;;;;;;3.57;91.24;101867.44;4971620;28;20053;-87
2023/04/02 07:46:48;;;;;;;3.58;2.85;;;;;;;3.55;91.98;101869.31;4974713;28;20069;-87
2023/04/02 07:49:14;;;;;;;5.75;3.55;;;;;;;3.61;92.63;101863.75;4991155;28;20490;-89
2023/04/02 07:51:39;;;;;;;6.40;3.40;;;;;;;3.66;92.20;101872.56;5008362;28;20050;-88
2023/04/02 07:54:06;;;;;;;6.45;3.15;;;;;;;3.63;89.35;101894.19;5010457;28;20029;-87
2023/04/02 07:56:32;;;;;;;8.75;2.95;;;;;;;3.64;90.13;101886.97;5007732;28;20088;-87
2023/04/02 07:58:57;;;;;;;4.57;2.47;;;;;;;3.76;88.72;101890.22;5008440;28;20419;-87
2023/04/02 08:01:25;;;;;;;9.82;3.10;;;;;;;3.68;88.96;101896.75;4997627;28;20053;-87
2023/04/02 08:03:52;;;;;;;5.88;2.90;;;;;;;3.70;90.20;101895.78;4988295;28;20045;-88
2023/04/02 08:06:17;;;;;;;6.75;2.80;;;;;;;3.71;88.20;101910.13;4968765;28;20855;-87
2023/04/02 08:08:43;;;;;;;9.27;3.72;;;;;;;3.74;88.52;101905.56;4984969;28;20126;-89
2023/04/02 08:11:09;;;;;;;5.47;3.15;;;;;;;3.74;89.06;101910.06;4995820;28;20601;-87
2023/04/02 08:13:34;;;;;;;6.40;3.08;;;;;;;3.68;89.28;101916.47;4994625;28;20405;-87
2023/04/02 08:16:01;;;;;;;11.73;2.83;;;;;;;3.65;90.16;101927.31;4969975;28;20018;-88
2023/04/02 08:18:27;;;;;;;4.20;2.95;;;;;;;3.72;89.84;101939.69;4989412;28;20108;-88
2023/04/02 08:20:53;;;;;;;6.97;3.30;;;;;;;3.73;88.68;101936.09;4989619;28;20133;-88
2023/04/02 08:23:18;;;;;;;7.28;2.92;;;;;;;3.68;89.48;101935.28;4992128;28;20100;-88
2023/04/02 08:25:45;;;;;;;6.55;2.25;;;;;;;3.71;88.62;101945.13;4990065;28;20034;-88
2023/04/02 08:28:10;;;;;;;5.28;2.33;;;;;;;3.68;89.08;101950.56;4988811;28;20025;-87
2023/04/02 08:30:36;;;;;;;4.47;2.30;;;;;;;3.64;89.19;101954.25;5003201;28;20521;-87
2023/04/02 08:33:02;;;;;;;3.72;2.47;;;;;;;3.59;89.23;101957.09;4988669;28;20092;-89
2023/04/02 08:35:28;;;;;;;9.70;2.72;;;;;;;3.58;88.83;101963.38;4988785;28;20087;-88
2023/04/02 08:37:54;;;;;;;3.20;2.45;;;;;;;3.57;88.30;101977.75;4988156;28;20043;-86
2023/04/02 08:40:35;;;;;;;2.70;2.10;;;;;;;3.57;89.23;101978.63;4971980;28;20065;-87
2023/04/02 08:43:04;;;;;;;6.13;2.63;;;;;;;3.60;88.83;101982.19;4971882;28;20034;-87
2023/04/02 08:45:43;;;;;;;5.57;2.30;;;;;;;3.60;88.79;101993.84;4988437;28;20050;-88
2023/04/02 08:48:10;;;;;;;7.70;3.08;;;;;;;3.62;89.68;101991.09;4953132;28;20046;-86
2023/04/02 08:50:39;;;;;;;5.97;2.15;;;;;;;3.68;88.73;101999.00;4979179;28;20129;-89
2023/04/02 08:53:15;;;;;;;3.95;2.58;;;;;;;3.69;88.78;102000.78;4968661;28;20553;-87
2023/04/02 08:55:51;;;;;;;3.78;2.40;;;;;;;3.72;90.13;102016.84;4968865;28;20043;-86
2023/04/02 08:58:35;;;;;;;5.55;2.10;;;;;;;3.75;87.74;102028.41;4975262;28;20185;-86
2023/04/02 09:01:03;;;;;;;5.68;2.08;;;;;;;3.73;87.95;102018.59;4982472;28;20034;-87
2023/04/02 09:03:40;;;;;;;10.25;2.35;;;;;;;3.80;88.97;102018.41;4988132;28;20060;-85
2023/04/02 09:06:11;;;;;;;3.97;2.40;;;;;;;3.87;87.45;102029.94;4972257;28;20045;-88
2023/04/02 09:08:38;;;;;;;5.03;2.30;;;;;;;3.84;86.71;102025.50;4988195;28;20353;-86
2023/04/02 09:11:16;;;;;;;4.70;2.38;;;;;;;3.85;87.35;102034.44;4992583;28;20042;-87
2023/04/02 09:13:45;;;;;;;5.35;2.50;;;;;;;3.91;89.03;102041.47;4975230;28;20038;-88
2023/04/02 09:16:14;;;;;;;7.85;2.08;;;;;;;3.96;89.06;102043.13;4998594;28;20030;-88
2023/04/02 09:18:42;;;;;;;3.22;2.35;;;;;;;3.92;87.59;102041.47;4988951;28;20049;-89
2023/04/02 09:21:19;;;;;;;5.15;2.13;;;;;;;3.93;87.08;102054.00;4987624;28;20042;-88
2023/04/02 09:23:45;;;;;;;11.27;2.78;;;;;;;3.90;87.81;102056.75;4988697;28;20046;-88
2023/04/02 09:26:28;;;;;;;7.85;2.47;;;;;;;3.95;88.43;102060.22;4989805;28;20083;-87
2023/04/02 09:29:11;;;;;;;7.57;2.95;;;;;;;3.96;89.55;102072.75;5006559;28;20066;-88
2023/04/02 09:31:47;;;;;;;8.18;3.05;;;;;;;4.05;89.09;102074.31;4993276;28;20045;-88
2023/04/02 09:34:31;;;;;;;2.85;2.03;;;;;;;4.13;87.90;102083.09;4981259;28;20132;-87
2023/04/02 09:37:07;;;;;;;4.95;2.10;;;;;;;3.97;87.46;102088.00;4992805;28;20479;-86
2023/04/02 09:39:32;;;;;;;6.78;3.20;;;;;;;3.88;88.29;102084.66;4991770;28;20057;-88
2023/04/02 09:41:57;;;;;;;5.50;2.20;;;;;;;3.91;88.10;102089.94;4991579;28;20019;-88
2023/04/02 09:44:29;;;;;;;5.05;3.05;;;;;;;3.84;87.20;102083.84;4974375;28;20041;-87
2023/04/02 09:47:04;;;;;;;4.60;2.42;;;;;;;3.79;88.19;102091.13;4972525;28;20042;-85
2023/04/02 09:49:38;;;;;;;5.45;2.80;;;;;;;3.82;88.99;102094.66;4980576;28;20032;-88
2023/04/02 09:52:15;;;;;;;8.65;2.63;;;;;;;3.83;89.14;102107.19;5010609;28;20501;-87
2023/04/02 09:54:41;;;;;;;5.82;2.90;;;;;;;3.84;88.98;102111.63;4993827;28;20046;-86
2023/04/02 09:57:26;;;;;;;5.13;2.63;;;;;;;3.84;90.29;102125.09;5010956;28;20434;-87
2023/04/02 10:00:12;;;;;;;5.80;2.97;;;;;;;3.84;88.16;102127.78;5008392;28;20133;-87
2023/04/02 10:02:39;;;;;;;2.90;2.38;;;;;;;3.84;88.93;102125.09;4984019;28;20402;-86
2023/04/02 10:05:14;;;;;;;5.30;2.85;;;;;;;3.91;89.54;102139.28;4999322;28;20551;-88
2023/04/02 10:07:45;;;;;;;4.40;2.25;;;;;;;4.02;89.94;102141.72;4994041;28;20042;-88
2023/04/02 10:10:20;;;;;;;5.93;2.67;;;;;;;4.07;88.48;102148.75;4993600;28;20446;-87
2023/04/02 10:12:50;;;;;;;8.15;3.08;;;;;;;4.04;89.05;102146.13;4992918;28;20042;-87
2023/04/02 10:15:21;;;;;;;6.40;2.72;;;;;;;3.99;88.38;102134.59;4997106;28;20340;-86
2023/04/02 10:18:01;;;;;;;4.93;2.63;;;;;;;4.03;89.14;102141.69;4973234;28;20030;-86
2023/04/02 10:20:28;;;;;;;5.20;2.45;;;;;;;4.09;88.04;102136.13;5005962;28;20616;-87
2023/04/02 10:22:53;;;;;;;5.68;2.10;;;;;;;4.19;87.97;102152.94;4990861;28;20110;-86
2023/04/02 10:25:24;;;;;;;4.25;2.30;;;;;;;4.20;87.26;102149.34;4992744;28;20034;-86
2023/04/02 10:28:37;;;;;;;3.58;2.15;;;;;;;4.14;87.14;102149.50;5010255;28;20120;-86
2023/04/02 10:31:21;;;;;;;4.30;2.20;;;;;;;4.15;86.66;102153.06;4983247;28;20120;-86
2023/04/02 10:33:53;;;;;;;4.55;2.90;;;;;;;4.10;85.78;102161.25;5010018;28;20528;-86
2023/04/02 10:36:40;;;;;;;3.97;2.20;;;;;;;4.16;86.98;102169.22;4992829;28;20044;-87
2023/04/02 10:39:14;;;;;;;6.95;1.98;;;;;;;4.23;87.22;102180.69;4992978;28;20445;-85
2023/04/02 10:41:56;;;;;;;4.90;2.83;;;;;;;4.28;88.22;102182.34;5008645;28;20040;-86
2023/04/02 10:44:40;;;;;;;7.60;2.67;;;;;;;4.44;86.61;102199.03;4986063;28;20080;-87
2023/04/02 10:47:15;;;;;;;4.88;3.28;;;;;;;4.40;86.59;102200.03;4991569;28;20113;-86
2023/04/02 10:50:00;;;;;;;5.03;2.92;;;;;;;4.42;87.22;102195.47;4979632;28;20398;-88
2023/04/02 10:52:34;;;;;;;4.55;2.95;;;;;;;4.54;87.62;102194.28;4949186;28;20105;-88
2023/04/02 10:55:13;;;;;;;3.13;2.50;;;;;;;4.81;85.37;102188.19;4958179;28;20430;-88
2023/04/02 10:57:41;;;;;;;5.93;2.60;;;;;;;5.07;87.19;102186.56;4988736;28;20046;-87
2023/04/02 11:00:10;;;;;;;5.07;3.10;;;;;;;5.26;84.54;102187.81;4988261;28;20038;-88
2023/04/02 11:03:01;;;;;;;2.97;2.50;;;;;;;5.31;84.30;102182.28;4989027;28;20449;-88
2023/04/02 11:05:43;;;;;;;5.10;2.42;;;;;;;5.21;85.24;102197.84;4996546;28;20054;-88
2023/04/02 11:08:19;;;;;;;6.82;2.72;;;;;;;5.25;83.76;102204.06;4987846;28;20450;-87
2023/04/02 11:10:56;;;;;;;6.45;3.10;;;;;;;5.30;82.98;102204.81;4988298;28;20477;-87
2023/04/02 11:13:30;;;;;;;4.47;2.78;;;;;;;5.43;83.56;102199.94;4987391;28;20046;-88
2023/04/02 11:15:55;;;;;;;5.07;2.90;;;;;;;5.48;82.99;102203.38;4995728;28;20038;-88
2023/04/02 11:18:24;;;;;;;7.03;3.25;;;;;;;5.70;85.19;102212.63;4971554;28;20061;-87
2023/04/02 11:20:49;;;;;;;3.90;3.00;;;;;;;5.89;81.18;102216.53;4990173;28;20069;-87
2023/04/02 11:23:19;;;;;;;4.53;2.95;;;;;;;6.01;81.88;102226.06;4987773;28;20379;-87
2023/04/02 11:25:46;;;;;;;3.50;2.78;;;;;;;6.04;81.06;102225.09;4988097;28;20034;-87
2023/04/02 11:28:26;;;;;;;4.28;2.38;;;;;;;6.08;79.85;102243.00;4971862;28;20374;-86
2023/04/02 11:30:53;;;;;;;5.68;2.50;;;;;;;5.94;78.36;102242.53;4984214;28;20042;-87
2023/04/02 11:33:32;;;;;;;4.95;2.55;;;;;;;5.94;80.22;102238.03;4988429;28;20030;-88
2023/04/02 11:35:58;;;;;;;6.72;2.28;;;;;;;5.73;78.24;102241.31;4971793;28;20129;-88
2023/04/02 11:38:23;;;;;;;4.38;2.55;;;;;;;5.64;79.55;102253.28;4989239;28;20397;-87
2023/04/02 11:40:57;;;;;;;5.53;2.78;;;;;;;5.58;79.23;102261.56;4990594;28;20510;-87
2023/04/02 11:43:31;;;;;;;3.97;2.50;;;;;;;5.55;79.37;102259.84;4995774;28;20045;-87
2023/04/02 11:46:00;;;;;;;4.63;2.92;;;;;;;5.52;80.18;102250.97;4983320;28;20038;-87
2023/04/02 11:48:32;;;;;;;11.25;3.30;;;;;;;5.70;80.23;102250.41;4971324;28;20038;-86
2023/04/02 11:51:03;;;;;;;6.63;3.17;;;;;;;5.76;81.12;102250.22;4972027;28;20453;-88
2023/04/02 11:53:33;;;;;;;3.65;2.95;;;;;;;5.79;80.98;102260.06;4972397;28;20562;-87
2023/04/02 11:56:15;;;;;;;9.65;3.10;;;;;;;5.79;78.90;102258.25;4971092;28;20030;-87
2023/04/02 11:59:06;;;;;;;3.83;2.22;;;;;;;5.69;79.04;102280.13;4971090;28;20038;-87